Time;durP1;ratioP1;P1;durP2;ratioP2;P2;SDS_P1;SDS_P2;PMS_P1;PMS_P2;Temp;Humidity;BMP_temperature;BMP_pressure;BME280_temperature;BME280_humidity;BME280_pressure;Samples;Min_cycle;Max_cycle;Signal;HPM_P1;HPM_P2
2024/03/01 00:02:04;;;;;;;;;;;;;;;2.97;100.00;94694.78;10375289;28;1948;-66
2024/03/01 00:07:06;;;;;;;;;;;;;;;2.95;100.00;94694.25;10360535;28;1994;-63
2024/03/01 00:12:10;;;;;;;;;;;;;;;2.84;100.00;94692.56;10360868;28;2049;-64
2024/03/01 00:17:12;;;;;;;;;;;;;;;2.81;100.00;94690.41;10370683;28;2168;-66
2024/03/01 00:22:15;;;;;;;;;;;;;;;2.70;100.00;94685.00;10364198;28;2331;-65
2024/03/01 00:27:18;;;;;;;;;;;;;;;2.70;100.00;94668.28;10364880;28;1981;-66
2024/03/01 00:32:21;;;;;;;;;;;;;;;2.62;100.00;94677.50;10357499;28;2397;-66
2024/03/01 00:37:24;;;;;;;;;;;;;;;2.54;100.00;94675.28;10356831;28;1912;-64
2024/03/01 00:42:27;;;;;;;;;;;;;;;2.43;100.00;94679.69;10353927;28;1932;-67
2024/03/01 00:47:30;;;;;;;;;;;;;;;2.61;100.00;94670.59;10353158;28;2117;-65
2024/03/01 00:52:34;;;;;;;;;;;;;;;2.69;100.00;94675.44;10367101;28;1935;-64
2024/03/01 00:57:36;;;;;;;;;;;;;;;2.76;100.00;94658.50;10367747;28;2121;-67
2024/03/01 01:02:39;;;;;;;;;;;;;;;2.79;100.00;94648.19;10354289;28;2109;-66
2024/03/01 01:07:44;;;;;;;;;;;;;;;2.84;100.00;94644.78;10358306;28;1967;-65
2024/03/01 01:12:46;;;;;;;;;;;;;;;2.91;100.00;94637.41;10357641;28;1959;-65
2024/03/01 01:17:49;;;;;;;;;;;;;;;2.99;100.00;94634.31;10368433;28;2557;-65
2024/03/01 01:22:52;;;;;;;;;;;;;;;2.96;100.00;94624.97;10357718;28;2022;-69
2024/03/01 01:27:54;;;;;;;;;;;;;;;3.02;100.00;94622.38;10354636;28;2360;-66
2024/03/01 01:32:57;;;;;;;;;;;;;;;2.98;100.00;94628.16;10348785;28;1986;-66
2024/03/01 01:38:00;;;;;;;;;;;;;;;2.96;100.00;94614.34;10353179;28;1976;-68
2024/03/01 01:43:03;;;;;;;;;;;;;;;2.99;100.00;94607.75;10355103;28;2121;-70
2024/03/01 01:48:06;;;;;;;;;;;;;;;2.98;100.00;94604.28;10356436;28;2062;-64
2024/03/01 01:53:08;;;;;;;;;;;;;;;3.12;100.00;94594.03;10352077;28;2074;-66
2024/03/01 01:58:22;;;;;;;;;;;;;;;3.18;100.00;94592.19;10355965;28;2024;-65
2024/03/01 02:03:27;;;;;;;;;;;;;;;3.14;100.00;94599.88;10356251;28;2042;-68
2024/03/01 02:08:30;;;;;;;;;;;;;;;3.26;100.00;94607.66;10351300;28;2201;-67
2024/03/01 02:13:32;;;;;;;;;;;;;;;3.23;100.00;94606.31;10355462;28;3181;-67
2024/03/01 02:18:36;;;;;;;;;;;;;;;3.17;100.00;94599.34;10351954;28;2168;-66
2024/03/01 02:23:38;;;;;;;;;;;;;;;3.19;100.00;94591.97;10351753;28;2017;-66
2024/03/01 02:28:41;;;;;;;;;;;;;;;3.14;100.00;94596.44;10355917;28;1972;-71
2024/03/01 02:33:43;;;;;;;;;;;;;;;3.24;100.00;94593.81;10351623;28;2089;-69
2024/03/01 02:38:46;;;;;;;;;;;;;;;3.23;100.00;94602.84;10357688;28;1905;-67
2024/03/01 02:43:48;;;;;;;;;;;;;;;3.03;100.00;94582.28;10355766;28;1920;-71
2024/03/01 02:48:52;;;;;;;;;;;;;;;2.88;100.00;94579.53;10355719;28;1914;-68
2024/03/01 02:53:55;;;;;;;;;;;;;;;2.84;100.00;94576.56;10357438;28;1893;-66
2024/03/01 02:58:57;;;;;;;;;;;;;;;2.67;100.00;94584.69;10356049;28;2007;-74
2024/03/01 03:04:03;;;;;;;;;;;;;;;2.51;100.00;94584.78;10350468;28;2117;-69
2024/03/01 03:09:09;;;;;;;;;;;;;;;2.38;100.00;94591.31;10354427;28;3045;-65
2024/03/01 03:14:11;;;;;;;;;;;;;;;2.25;100.00;94587.22;10360074;28;2185;-66
2024/03/01 03:19:14;;;;;;;;;;;;;;;2.21;100.00;94596.69;10359250;28;2026;-65
2024/03/01 03:24:17;;;;;;;;;;;;;;;2.21;100.00;94603.84;10349085;28;2118;-65
2024/03/01 03:29:20;;;;;;;;;;;;;;;1.87;100.00;94609.34;10354362;28;2141;-65
2024/03/01 03:34:22;;;;;;;;;;;;;;;2.00;100.00;94622.19;10364326;28;1947;-66
2024/03/01 03:39:25;;;;;;;;;;;;;;;1.91;100.00;94626.34;10365511;28;2005;-65
2024/03/01 03:44:28;;;;;;;;;;;;;;;1.80;100.00;94641.31;10361368;28;2070;-64
2024/03/01 03:49:33;;;;;;;;;;;;;;;1.88;100.00;94651.47;10355904;28;3181;-68
2024/03/01 03:54:36;;;;;;;;;;;;;;;2.09;100.00;94657.00;10359947;28;2035;-65
2024/03/01 03:59:38;;;;;;;;;;;;;;;2.30;100.00;94673.97;10361340;28;1889;-66
2024/03/01 04:04:41;;;;;;;;;;;;;;;2.34;100.00;94667.09;10377040;28;2063;-67
2024/03/01 04:09:44;;;;;;;;;;;;;;;2.31;100.00;94665.75;10358675;28;2093;-74
2024/03/01 04:14:47;;;;;;;;;;;;;;;2.20;100.00;94653.44;10355473;28;2029;-67
2024/03/01 04:19:50;;;;;;;;;;;;;;;2.23;100.00;94657.44;10359754;28;2089;-65
2024/03/01 04:24:54;;;;;;;;;;;;;;;2.20;100.00;94663.25;10367351;28;1877;-66
2024/03/01 04:29:57;;;;;;;;;;;;;;;2.05;100.00;94662.03;10362279;28;1971;-66
2024/03/01 04:35:01;;;;;;;;;;;;;;;2.21;100.00;94694.00;10363187;28;3233;-67
2024/03/01 04:40:05;;;;;;;;;;;;;;;2.32;100.00;94685.13;10359288;28;2190;-66
2024/03/01 04:45:08;;;;;;;;;;;;;;;2.51;100.00;94674.97;10364690;28;2033;-66
2024/03/01 04:50:11;;;;;;;;;;;;;;;2.60;100.00;94678.78;10370745;28;2104;-65
2024/03/01 04:55:13;;;;;;;;;;;;;;;2.76;100.00;94677.09;10367464;28;1909;-65
2024/03/01 05:00:21;;;;;;;;;;;;;;;2.82;100.00;94678.75;10358987;28;1996;-66
2024/03/01 05:05:25;;;;;;;;;;;;;;;2.87;100.00;94692.06;10365421;28;2082;-65
2024/03/01 05:10:28;;;;;;;;;;;;;;;2.95;100.00;94696.91;10356726;28;1931;-65
2024/03/01 05:15:31;;;;;;;;;;;;;;;3.08;100.00;94704.47;10341705;28;3174;-65
2024/03/01 05:20:33;;;;;;;;;;;;;;;3.12;100.00;94713.53;10360931;28;1995;-63
2024/03/01 05:25:36;;;;;;;;;;;;;;;3.20;100.00;94715.72;10360674;28;2133;-65
2024/03/01 05:30:39;;;;;;;;;;;;;;;3.31;100.00;94731.72;10356602;28;1997;-65
2024/03/01 05:35:53;;;;;;;;;;;;;;;3.46;100.00;94729.19;10358361;28;2074;-65
2024/03/01 05:40:58;;;;;;;;;;;;;;;3.58;100.00;94742.31;10363535;28;2058;-65
2024/03/01 05:46:04;;;;;;;;;;;;;;;3.63;100.00;94735.19;10361292;28;2199;-65
2024/03/01 05:51:08;;;;;;;;;;;;;;;3.62;100.00;94738.88;10354552;28;2114;-64
2024/03/01 05:56:17;;;;;;;;;;;;;;;3.66;100.00;94745.28;10376486;28;2003;-75
2024/03/01 06:01:23;;;;;;;;;;;;;;;3.76;100.00;94745.38;10360947;28;2197;-65
2024/03/01 06:06:26;;;;;;;;;;;;;;;3.72;100.00;94746.91;10377302;28;2302;-65
2024/03/01 06:11:29;;;;;;;;;;;;;;;3.80;100.00;94750.94;10368585;28;1989;-65
2024/03/01 06:16:32;;;;;;;;;;;;;;;3.79;100.00;94739.53;10359521;28;2053;-64
2024/03/01 06:21:35;;;;;;;;;;;;;;;3.73;100.00;94732.56;10350934;28;2230;-64
2024/03/01 06:26:38;;;;;;;;;;;;;;;3.80;100.00;94733.16;10356191;28;1944;-64
2024/03/01 06:31:41;;;;;;;;;;;;;;;3.79;100.00;94733.41;10371927;28;2030;-64
2024/03/01 06:36:44;;;;;;;;;;;;;;;3.74;100.00;94746.66;10356662;28;2063;-64
2024/03/01 06:41:47;;;;;;;;;;;;;;;3.70;100.00;94751.69;10358134;28;2011;-65
2024/03/01 06:46:49;;;;;;;;;;;;;;;3.66;100.00;94763.88;10349410;28;2240;-67
2024/03/01 06:51:52;;;;;;;;;;;;;;;3.78;100.00;94769.81;10353833;28;2018;-64
2024/03/01 06:56:54;;;;;;;;;;;;;;;3.86;100.00;94759.75;10360477;28;2155;-66
2024/03/01 07:01:57;;;;;;;;;;;;;;;3.98;100.00;94774.47;10356615;28;2112;-64
2024/03/01 07:07:00;;;;;;;;;;;;;;;4.10;100.00;94782.25;10355748;28;1963;-65
2024/03/01 07:12:03;;;;;;;;;;;;;;;4.24;100.00;94770.09;10354907;28;1989;-69
2024/03/01 07:17:05;;;;;;;;;;;;;;;4.45;100.00;94772.84;10361418;28;2093;-66
2024/03/01 07:22:08;;;;;;;;;;;;;;;4.64;100.00;94776.66;10355566;28;1958;-67
2024/03/01 07:27:10;;;;;;;;;;;;;;;4.70;100.00;94769.50;10353581;28;2461;-66
2024/03/01 07:32:13;;;;;;;;;;;;;;;4.78;100.00;94769.81;10357919;28;1942;-66
2024/03/01 07:37:15;;;;;;;;;;;;;;;4.92;100.00;94762.13;10354497;28;2077;-65
2024/03/01 07:42:20;;;;;;;;;;;;;;;5.09;100.00;94767.22;10357788;28;2027;-66
2024/03/01 07:47:24;;;;;;;;;;;;;;;5.18;100.00;94764.84;10360975;28;2289;-65
2024/03/01 07:52:27;;;;;;;;;;;;;;;5.09;100.00;94762.72;10359116;28;2049;-66
2024/03/01 07:57:30;;;;;;;;;;;;;;;5.18;100.00;94764.84;10354980;28;2145;-64
2024/03/01 08:02:32;;;;;;;;;;;;;;;5.29;100.00;94767.25;10359060;28;2072;-65
2024/03/01 08:07:35;;;;;;;;;;;;;;;5.45;100.00;94756.59;10357033;28;2615;-65
2024/03/01 08:12:38;;;;;;;;;;;;;;;5.52;100.00;94751.81;10363567;28;1988;-65
2024/03/01 08:17:40;;;;;;;;;;;;;;;5.68;100.00;94753.41;10355174;28;2028;-66
2024/03/01 08:22:43;;;;;;;;;;;;;;;5.74;100.00;94757.69;10353962;28;2496;-65
2024/03/01 08:27:46;;;;;;;;;;;;;;;5.96;100.00;94765.41;10357047;28;2109;-65
2024/03/01 08:32:49;;;;;;;;;;;;;;;6.33;100.00;94765.09;10360307;28;2077;-64
2024/03/01 08:37:54;;;;;;;;;;;;;;;6.46;100.00;94764.50;10361672;28;1893;-66
2024/03/01 08:42:56;;;;;;;;;;;;;;;6.92;100.00;94747.50;10364638;28;2189;-66
2024/03/01 08:47:59;;;;;;;;;;;;;;;7.24;100.00;94747.03;10357051;28;2209;-67
2024/03/01 08:53:01;;;;;;;;;;;;;;;7.25;100.00;94756.66;10350189;28;2053;-65
2024/03/01 08:58:04;;;;;;;;;;;;;;;7.19;100.00;94755.06;10349334;28;2081;-64
2024/03/01 09:03:09;;;;;;;;;;;;;;;7.45;100.00;94753.06;10352602;28;2415;-65
2024/03/01 09:08:11;;;;;;;;;;;;;;;8.01;100.00;94766.75;10349973;28;2051;-64
2024/03/01 09:13:14;;;;;;;;;;;;;;;8.39;100.00;94756.25;10356024;28;2153;-65
2024/03/01 09:18:17;;;;;;;;;;;;;;;8.09;100.00;94752.78;10360285;28;1951;-64
2024/03/01 09:23:20;;;;;;;;;;;;;;;7.94;100.00;94771.63;10352261;28;2120;-65
2024/03/01 09:28:23;;;;;;;;;;;;;;;8.33;100.00;94773.41;10355763;28;1904;-63
2024/03/01 09:33:26;;;;;;;;;;;;;;;8.41;100.00;94762.13;10357225;28;2202;-65
2024/03/01 09:38:29;;;;;;;;;;;;;;;8.43;100.00;94761.84;10357649;28;2086;-63
2024/03/01 09:43:31;;;;;;;;;;;;;;;8.54;100.00;94769.50;10355016;28;2249;-67
2024/03/01 09:48:36;;;;;;;;;;;;;;;8.69;100.00;94767.72;10353142;28;2066;-65
2024/03/01 09:53:39;;;;;;;;;;;;;;;8.89;100.00;94767.47;10353511;28;1920;-65
2024/03/01 09:58:41;;;;;;;;;;;;;;;9.21;100.00;94748.81;10355237;28;2108;-67
2024/03/01 10:03:44;;;;;;;;;;;;;;;9.08;100.00;94762.13;10348681;28;2057;-75
2024/03/01 10:08:47;;;;;;;;;;;;;;;9.64;100.00;94767.50;10343346;28;2150;-67
2024/03/01 10:13:50;;;;;;;;;;;;;;;9.90;100.00;94775.16;10345675;28;2214;-72
2024/03/01 10:18:52;;;;;;;;;;;;;;;9.72;100.00;94782.94;10352762;28;1929;-69
2024/03/01 10:23:55;;;;;;;;;;;;;;;9.86;100.00;94766.91;10351500;28;2194;-68
2024/03/01 10:28:58;;;;;;;;;;;;;;;9.99;100.00;94762.66;10350025;28;2033;-65
2024/03/01 10:34:04;;;;;;;;;;;;;;;9.86;100.00;94758.84;10345908;28;2046;-68
2024/03/01 10:39:08;;;;;;;;;;;;;;;10.06;100.00;94759.59;10346238;28;1930;-70
2024/03/01 10:44:10;;;;;;;;;;;;;;;9.99;100.00;94757.31;10350493;28;2113;-68
2024/03/01 10:49:14;;;;;;;;;;;;;;;10.06;100.00;94760.41;10349065;28;2132;-66
2024/03/01 10:54:16;;;;;;;;;;;;;;;10.15;100.00;94755.94;10355120;28;1991;-67
2024/03/01 10:59:19;;;;;;;;;;;;;;;10.36;100.00;94747.53;10347280;28;1987;-67
2024/03/01 11:04:21;;;;;;;;;;;;;;;10.31;100.00;94734.19;10355584;28;1897;-67
2024/03/01 11:09:24;;;;;;;;;;;;;;;10.20;100.00;94729.00;10350717;28;1861;-66
2024/03/01 11:14:29;;;;;;;;;;;;;;;10.61;100.00;94730.13;10349470;28;2371;-65
2024/03/01 11:19:32;;;;;;;;;;;;;;;10.38;100.00;94723.88;10347708;28;1979;-66
2024/03/01 11:24:36;;;;;;;;;;;;;;;10.37;100.00;94723.09;10346448;28;1997;-67
2024/03/01 11:29:39;;;;;;;;;;;;;;;10.40;100.00;94721.69;10350557;28;2066;-66
2024/03/01 11:34:41;;;;;;;;;;;;;;;10.10;100.00;94705.00;10349010;28;2205;-66
2024/03/01 11:39:48;;;;;;;;;;;;;;;10.16;100.00;94701.13;10351260;28;2045;-66
2024/03/01 11:44:50;;;;;;;;;;;;;;;10.19;100.00;94705.13;10353455;28;2105;-66
2024/03/01 11:49:53;;;;;;;;;;;;;;;9.85;100.00;94710.81;10360861;28;1995;-70
2024/03/01 11:54:56;;;;;;;;;;;;;;;10.02;100.00;94717.22;10356537;28;2320;-65
2024/03/01 11:59:59;;;;;;;;;;;;;;;10.31;100.00;94712.69;10355620;28;1922;-68
2024/03/01 12:05:02;;;;;;;;;;;;;;;10.49;100.00;94706.44;10362758;28;2125;-66
2024/03/01 12:10:06;;;;;;;;;;;;;;;10.70;100.00;94699.59;10359365;28;1913;-68
2024/03/01 12:15:09;;;;;;;;;;;;;;;10.36;100.00;94709.94;10361637;28;1983;-67
2024/03/01 12:20:13;;;;;;;;;;;;;;;10.50;100.00;94702.69;10355670;28;1896;-67
2024/03/01 12:25:16;;;;;;;;;;;;;;;10.31;100.00;94702.78;10356352;28;2217;-67
2024/03/01 12:30:18;;;;;;;;;;;;;;;10.07;100.00;94704.81;10356389;28;2030;-67
2024/03/01 12:35:21;;;;;;;;;;;;;;;9.92;100.00;94700.47;10358172;28;2364;-66
2024/03/01 12:40:24;;;;;;;;;;;;;;;9.99;100.00;94690.19;10353768;28;1986;-67
2024/03/01 12:45:31;;;;;;;;;;;;;;;10.10;100.00;94696.94;10368434;28;2057;-66
2024/03/01 12:50:34;;;;;;;;;;;;;;;9.88;100.00;94699.50;10351538;28;2136;-69
2024/03/01 12:55:38;;;;;;;;;;;;;;;9.82;100.00;94696.09;10355211;28;1991;-67
2024/03/01 13:00:41;;;;;;;;;;;;;;;10.00;100.00;94697.13;10357503;28;2036;-65
2024/03/01 13:05:43;;;;;;;;;;;;;;;9.69;100.00;94700.34;10358218;28;2064;-65
2024/03/01 13:10:51;;;;;;;;;;;;;;;9.66;100.00;94697.44;10356763;28;1939;-66
2024/03/01 13:15:55;;;;;;;;;;;;;;;9.80;100.00;94692.94;10348600;28;1982;-67
2024/03/01 13:20:58;;;;;;;;;;;;;;;9.47;100.00;94689.41;10356861;28;1982;-66
2024/03/01 13:26:02;;;;;;;;;;;;;;;9.25;100.00;94686.56;10351637;28;3169;-66
2024/03/01 13:31:07;;;;;;;;;;;;;;;9.42;100.00;94689.53;10358157;28;1989;-67
2024/03/01 13:36:14;;;;;;;;;;;;;;;9.05;100.00;94680.41;10347113;28;2113;-66
2024/03/01 13:41:16;;;;;;;;;;;;;;;9.05;100.00;94687.66;10349105;28;1979;-65
2024/03/01 13:46:23;;;;;;;;;;;;;;;8.96;100.00;94686.69;10348173;28;2092;-66
2024/03/01 13:51:26;;;;;;;;;;;;;;;9.13;100.00;94687.78;10352707;28;2140;-66
2024/03/01 13:56:29;;;;;;;;;;;;;;;9.35;100.00;94691.75;10351055;28;2107;-66
2024/03/01 14:01:32;;;;;;;;;;;;;;;9.26;100.00;94682.78;10355820;28;1924;-66
2024/03/01 14:06:34;;;;;;;;;;;;;;;8.96;100.00;94687.50;10351978;28;2244;-65
2024/03/01 14:11:37;;;;;;;;;;;;;;;8.97;100.00;94685.63;10352608;28;1974;-66
2024/03/01 14:16:41;;;;;;;;;;;;;;;9.04;100.00;94683.41;10352595;28;1982;-65
2024/03/01 14:21:44;;;;;;;;;;;;;;;9.03;100.00;94689.81;10356374;28;1896;-66
2024/03/01 14:26:46;;;;;;;;;;;;;;;8.91;100.00;94688.38;10358991;28;2037;-66
2024/03/01 14:31:49;;;;;;;;;;;;;;;8.92;100.00;94695.34;10354493;28;2274;-66
2024/03/01 14:36:52;;;;;;;;;;;;;;;9.00;100.00;94696.56;10350302;28;1917;-65
2024/03/01 14:41:54;;;;;;;;;;;;;;;8.87;100.00;94697.28;10355400;28;2026;-66
2024/03/01 14:46:58;;;;;;;;;;;;;;;8.80;100.00;94696.84;10350435;28;1907;-65
2024/03/01 14:52:01;;;;;;;;;;;;;;;8.50;100.00;94700.69;10351928;28;1993;-65
2024/03/01 14:57:04;;;;;;;;;;;;;;;8.75;100.00;94692.34;10360832;28;2021;-65
2024/03/01 15:02:09;;;;;;;;;;;;;;;8.77;100.00;94698.19;10348577;28;1982;-67
2024/03/01 15:07:14;;;;;;;;;;;;;;;8.76;100.00;94703.84;10350066;28;2547;-68
2024/03/01 15:12:17;;;;;;;;;;;;;;;8.66;100.00;94702.91;10351298;28;2208;-68
2024/03/01 15:17:20;;;;;;;;;;;;;;;8.60;100.00;94701.38;10351211;28;2065;-75
2024/03/01 15:22:22;;;;;;;;;;;;;;;8.39;100.00;94703.47;10359941;28;2014;-67
2024/03/01 15:27:25;;;;;;;;;;;;;;;8.41;100.00;94697.88;10377452;28;2030;-66
2024/03/01 15:32:30;;;;;;;;;;;;;;;8.59;100.00;94699.00;10372606;28;2149;-67
2024/03/01 15:37:34;;;;;;;;;;;;;;;8.50;100.00;94698.81;10358570;28;2044;-67
2024/03/01 15:42:37;;;;;;;;;;;;;;;8.48;100.00;94698.31;10364615;28;2775;-66
2024/03/01 15:47:40;;;;;;;;;;;;;;;8.43;100.00;94709.06;10366893;28;1969;-67
2024/03/01 15:52:43;;;;;;;;;;;;;;;8.28;100.00;94706.56;10358514;28;2018;-67
2024/03/01 15:57:45;;;;;;;;;;;;;;;8.22;100.00;94699.66;10358750;28;2018;-66
2024/03/01 16:02:49;;;;;;;;;;;;;;;8.27;100.00;94702.25;10357698;28;2113;-69
2024/03/01 16:07:52;;;;;;;;;;;;;;;8.33;100.00;94699.28;10360330;28;2069;-66
2024/03/01 16:12:55;;;;;;;;;;;;;;;8.25;100.00;94699.06;10357187;28;2049;-66
2024/03/01 16:17:57;;;;;;;;;;;;;;;8.20;100.00;94694.56;10370591;28;2133;-67
2024/03/01 16:23:01;;;;;;;;;;;;;;;8.25;100.00;94701.75;10361224;28;1930;-67
2024/03/01 16:28:05;;;;;;;;;;;;;;;8.20;100.00;94699.13;10357344;28;2167;-67
2024/03/01 16:33:07;;;;;;;;;;;;;;;8.06;100.00;94705.16;10354419;28;2026;-69
2024/03/01 16:38:10;;;;;;;;;;;;;;;8.04;100.00;94710.00;10350090;28;2031;-67
2024/03/01 16:43:14;;;;;;;;;;;;;;;8.00;100.00;94705.50;10352882;28;2030;-66
2024/03/01 16:48:16;;;;;;;;;;;;;;;7.98;100.00;94703.09;10354429;28;2514;-67
2024/03/01 16:53:19;;;;;;;;;;;;;;;7.96;100.00;94705.28;10356923;28;1948;-65
2024/03/01 16:58:21;;;;;;;;;;;;;;;7.88;100.00;94697.84;10360182;28;2033;-66
2024/03/01 17:03:24;;;;;;;;;;;;;;;7.84;100.00;94708.34;10363048;28;2189;-67
2024/03/01 17:08:27;;;;;;;;;;;;;;;7.75;100.00;94704.66;10354501;28;2048;-68
2024/03/01 17:13:30;;;;;;;;;;;;;;;7.72;100.00;94710.56;10353217;28;2010;-70
2024/03/01 17:18:33;;;;;;;;;;;;;;;7.78;100.00;94708.66;10353511;28;2155;-67
2024/03/01 17:23:36;;;;;;;;;;;;;;;7.75;100.00;94714.56;10368317;28;1895;-71
2024/03/01 17:28:40;;;;;;;;;;;;;;;7.62;100.00;94725.91;10356989;28;1990;-64
2024/03/01 17:33:44;;;;;;;;;;;;;;;7.51;100.00;94719.84;10355971;28;2273;-66
2024/03/01 17:38:47;;;;;;;;;;;;;;;7.46;100.00;94715.34;10357762;28;2193;-68
2024/03/01 17:43:49;;;;;;;;;;;;;;;7.44;100.00;94720.16;10353807;28;2949;-70
2024/03/01 17:48:52;;;;;;;;;;;;;;;7.44;100.00;94724.69;10348992;28;1966;-71
2024/03/01 17:53:54;;;;;;;;;;;;;;;7.37;100.00;94733.03;10371125;28;2054;-65
2024/03/01 17:58:57;;;;;;;;;;;;;;;7.39;100.00;94727.44;10367457;28;2020;-65
2024/03/01 18:04:00;;;;;;;;;;;;;;;7.29;100.00;94730.97;10357747;28;1947;-67
2024/03/01 18:09:02;;;;;;;;;;;;;;;7.21;100.00;94734.25;10362212;28;1924;-65
2024/03/01 18:14:07;;;;;;;;;;;;;;;7.07;100.00;94746.63;10351668;28;1987;-64
2024/03/01 18:19:12;;;;;;;;;;;;;;;6.96;100.00;94751.22;10355514;28;1877;-66
2024/03/01 18:24:15;;;;;;;;;;;;;;;6.85;100.00;94755.81;10350654;28;2573;-65
2024/03/01 18:29:18;;;;;;;;;;;;;;;6.77;100.00;94759.84;10366686;28;1941;-67
2024/03/01 18:34:21;;;;;;;;;;;;;;;6.76;100.00;94754.78;10363632;28;2126;-65
2024/03/01 18:39:26;;;;;;;;;;;;;;;6.70;100.00;94750.53;10353225;28;2001;-68
2024/03/01 18:44:28;;;;;;;;;;;;;;;6.69;100.00;94746.28;10354318;28;2013;-65
2024/03/01 18:49:31;;;;;;;;;;;;;;;6.67;100.00;94756.41;10350148;28;2070;-65
2024/03/01 18:54:43;;;;;;;;;;;;;;;6.55;100.00;94751.38;10345033;28;2049;-65
2024/03/01 18:59:47;;;;;;;;;;;;;;;6.48;100.00;94750.88;10356343;28;1943;-67
2024/03/01 19:04:50;;;;;;;;;;;;;;;6.48;100.00;94756.22;10358816;28;2003;-69
2024/03/01 19:09:53;;;;;;;;;;;;;;;6.45;100.00;94757.56;10357751;28;2058;-67
2024/03/01 19:14:57;;;;;;;;;;;;;;;6.39;100.00;94752.53;10357015;28;2098;-70
2024/03/01 19:20:00;;;;;;;;;;;;;;;6.39;100.00;94758.66;10371734;28;2391;-66
2024/03/01 19:25:05;;;;;;;;;;;;;;;6.39;100.00;94758.66;10370447;28;2134;-65
2024/03/01 19:30:07;;;;;;;;;;;;;;;6.36;100.00;94763.72;10355530;28;1934;-66
2024/03/01 19:35:10;;;;;;;;;;;;;;;6.39;100.00;94760.53;10358885;28;1935;-66
2024/03/01 19:40:14;;;;;;;;;;;;;;;6.38;100.00;94765.06;10363510;28;1705;-64
2024/03/01 19:45:17;;;;;;;;;;;;;;;6.32;100.00;94758.16;10379848;28;1638;-65
2024/03/01 19:50:20;;;;;;;;;;;;;;;6.29;100.00;94763.22;10362402;28;1739;-65
2024/03/01 19:55:22;;;;;;;;;;;;;;;6.28;100.00;94767.75;10367366;28;1990;-66
2024/03/01 20:00:27;;;;;;;;;;;;;;;6.26;100.00;94759.22;10369387;28;1642;-70
2024/03/01 20:05:31;;;;;;;;;;;;;;;6.27;100.00;94766.16;10368242;28;2313;-70
2024/03/01 20:10:34;;;;;;;;;;;;;;;6.28;100.00;94754.41;10371062;28;1693;-67
2024/03/01 20:15:37;;;;;;;;;;;;;;;6.27;100.00;94757.34;10365780;28;1985;-70
2024/03/01 20:20:42;;;;;;;;;;;;;;;6.26;100.00;94751.22;10375159;28;1727;-66
2024/03/01 20:25:45;;;;;;;;;;;;;;;6.18;100.00;94749.13;10379979;28;1661;-65
2024/03/01 20:30:48;;;;;;;;;;;;;;;6.23;100.00;94743.75;10367366;28;1645;-65
2024/03/01 20:35:55;;;;;;;;;;;;;;;6.17;100.00;94751.00;10364779;28;1970;-65
2024/03/01 20:40:57;;;;;;;;;;;;;;;6.16;100.00;94746.69;10375694;28;1802;-67
2024/03/01 20:46:00;;;;;;;;;;;;;;;6.09;100.00;94742.72;10377242;28;2248;-69
2024/03/01 20:51:06;;;;;;;;;;;;;;;6.14;100.00;94734.72;10369136;28;1976;-68
2024/03/01 20:56:09;;;;;;;;;;;;;;;6.11;100.00;94737.94;10371022;28;2113;-70
2024/03/01 21:01:12;;;;;;;;;;;;;;;6.10;100.00;94733.63;10365949;28;1591;-74
2024/03/01 21:06:16;;;;;;;;;;;;;;;6.06;100.00;94730.72;10367991;28;1633;-70
2024/03/01 21:11:18;;;;;;;;;;;;;;;6.07;100.00;94734.19;10361343;28;1640;-70
2024/03/01 21:16:21;;;;;;;;;;;;;;;6.02;100.00;94718.19;10359190;28;1910;-66
2024/03/01 21:21:25;;;;;;;;;;;;;;;5.96;100.00;94728.88;10363947;28;1617;-66
2024/03/01 21:26:28;;;;;;;;;;;;;;;5.94;100.00;94719.56;10365970;28;1685;-65
2024/03/01 21:31:30;;;;;;;;;;;;;;;5.81;100.00;94718.22;10350499;28;1888;-64
2024/03/01 21:36:33;;;;;;;;;;;;;;;5.83;100.00;94715.25;10354017;28;2106;-64
2024/03/01 21:41:35;;;;;;;;;;;;;;;5.81;100.00;94709.41;10357143;28;1902;-64
2024/03/01 21:46:38;;;;;;;;;;;;;;;5.88;100.00;94705.38;10353336;28;2670;-63
2024/03/01 21:51:41;;;;;;;;;;;;;;;5.93;100.00;94702.75;10354007;28;2231;-64
2024/03/01 21:56:45;;;;;;;;;;;;;;;5.88;100.00;94710.72;10357089;28;2007;-65
2024/03/01 22:01:48;;;;;;;;;;;;;;;5.93;100.00;94702.75;10353719;28;2127;-68
2024/03/01 22:06:51;;;;;;;;;;;;;;;5.85;100.00;94705.94;10358186;28;1990;-66
2024/03/01 22:11:54;;;;;;;;;;;;;;;5.92;100.00;94703.81;10352236;28;2009;-68
2024/03/01 22:16:56;;;;;;;;;;;;;;;5.90;100.00;94700.56;10357898;28;2031;-65
2024/03/01 22:21:59;;;;;;;;;;;;;;;5.93;100.00;94689.41;10350726;28;2090;-64
2024/03/01 22:27:01;;;;;;;;;;;;;;;5.95;100.00;94694.47;10354499;28;1922;-65
2024/03/01 22:32:04;;;;;;;;;;;;;;;5.98;100.00;94693.94;10354731;28;2065;-65
2024/03/01 22:37:07;;;;;;;;;;;;;;;6.00;100.00;94694.47;10356352;28;2250;-64
2024/03/01 22:42:12;;;;;;;;;;;;;;;6.04;100.00;94692.03;10351304;28;2378;-66
2024/03/01 22:47:15;;;;;;;;;;;;;;;6.00;100.00;94685.66;10351262;28;2220;-66
2024/03/01 22:52:17;;;;;;;;;;;;;;;6.05;100.00;94683.00;10354311;28;2140;-65
2024/03/01 22:57:20;;;;;;;;;;;;;;;6.05;100.00;94683.78;10354747;28;2267;-65
2024/03/01 23:02:23;;;;;;;;;;;;;;;6.06;100.00;94673.91;10352715;28;2219;-66
2024/03/01 23:07:25;;;;;;;;;;;;;;;6.09;100.00;94684.03;10352841;28;2045;-65
2024/03/01 23:12:28;;;;;;;;;;;;;;;6.06;100.00;94685.38;10352234;28;2152;-68
2024/03/01 23:17:32;;;;;;;;;;;;;;;6.16;100.00;94687.19;10350924;28;2049;-65
2024/03/01 23:22:37;;;;;;;;;;;;;;;6.12;100.00;94680.81;10356127;28;2377;-65
2024/03/01 23:27:40;;;;;;;;;;;;;;;6.20;100.00;94672.25;10371306;28;2039;-64
2024/03/01 23:32:43;;;;;;;;;;;;;;;6.29;100.00;94675.16;10350867;28;2101;-63
2024/03/01 23:37:46;;;;;;;;;;;;;;;6.20;100.00;94678.38;10352177;28;1993;-64
2024/03/01 23:42:48;;;;;;;;;;;;;;;6.21;100.00;94676.50;10352206;28;1984;-66
2024/03/01 23:47:51;;;;;;;;;;;;;;;6.24;100.00;94675.97;10362124;28;2081;-65
2024/03/01 23:52:54;;;;;;;;;;;;;;;6.27;100.00;94674.63;10365326;28;2075;-65
2024/03/01 23:57:56;;;;;;;;;;;;;;;6.21;100.00;94663.16;10360032;28;2066;-64
